createdAt,value
2023-12-01T00:01:55.988Z,5.40
2023-12-01T00:04:23.249Z,5.30
2023-12-01T00:06:50.519Z,5.20
2023-12-01T00:09:17.837Z,5.30
2023-12-01T00:11:45.200Z,5.30
2023-12-01T00:14:12.596Z,5.30
2023-12-01T00:16:39.876Z,5.40
2023-12-01T00:19:07.210Z,5.20
2023-12-01T00:21:34.576Z,5.20
2023-12-01T00:24:03.623Z,5.30
2023-12-01T00:26:30.882Z,5.40
2023-12-01T00:28:58.183Z,5.30
2023-12-01T00:31:26.004Z,5.50
2023-12-01T00:33:53.304Z,5.30
2023-12-01T00:36:20.584Z,5.40
2023-12-01T00:38:47.875Z,5.70
2023-12-01T00:41:15.488Z,5.60
2023-12-01T00:43:45.239Z,5.40
2023-12-01T00:46:12.540Z,5.40
2023-12-01T00:48:39.870Z,5.40
2023-12-01T00:51:15.002Z,5.30
2023-12-01T00:53:42.185Z,5.20
2023-12-01T00:56:10.547Z,5.10
2023-12-01T01:01:22.545Z,5.20
2023-12-01T01:03:49.812Z,4.90
2023-12-01T01:06:17.171Z,5.00
2023-12-01T01:08:44.458Z,5.00
2023-12-01T01:11:11.630Z,5.00
2023-12-01T01:13:38.942Z,4.90
2023-12-01T01:16:06.905Z,4.90
2023-12-01T01:18:34.314Z,5.00
2023-12-01T01:21:01.608Z,5.00
2023-12-01T01:23:28.911Z,5.00
2023-12-01T01:25:56.164Z,5.00
2023-12-01T01:28:23.470Z,4.90
2023-12-01T01:30:50.813Z,5.00
2023-12-01T01:33:18.085Z,5.00
2023-12-01T01:35:46.673Z,5.10
2023-12-01T01:38:13.931Z,5.10
2023-12-01T01:40:41.283Z,5.00
2023-12-01T01:43:08.527Z,5.10
2023-12-01T01:45:35.832Z,5.10
2023-12-01T01:48:03.363Z,5.00
2023-12-01T01:50:30.725Z,4.90
2023-12-01T01:52:58.121Z,4.90
2023-12-01T01:55:25.605Z,5.00
2023-12-01T01:57:55.334Z,5.00
2023-12-01T02:00:22.576Z,4.90
2023-12-01T02:02:50.102Z,4.90
2023-12-01T02:05:17.347Z,4.90
2023-12-01T02:07:45.203Z,5.00
2023-12-01T02:10:17.412Z,4.90
2023-12-01T02:12:46.731Z,5.10
2023-12-01T02:15:14.490Z,5.10
2023-12-01T02:17:42.800Z,5.20
2023-12-01T02:20:16.951Z,5.30
2023-12-01T02:22:47.504Z,5.40
2023-12-01T02:25:15.624Z,5.40
2023-12-01T02:27:42.876Z,5.40
2023-12-01T02:30:11.705Z,5.50
2023-12-01T02:32:40.922Z,5.50
2023-12-01T02:35:11.201Z,5.40
2023-12-01T02:37:38.764Z,5.50
2023-12-01T02:40:17.028Z,5.50
2023-12-01T02:45:34.286Z,5.60
2023-12-01T02:48:01.885Z,5.50
2023-12-01T02:50:29.141Z,5.50
2023-12-01T02:52:56.402Z,5.10
2023-12-01T02:55:23.594Z,5.20
2023-12-01T02:57:50.854Z,5.30
2023-12-01T03:00:18.624Z,5.40
2023-12-01T03:02:46.395Z,5.40
2023-12-01T03:05:13.665Z,5.30
2023-12-01T03:07:59.276Z,5.40
2023-12-01T03:10:26.516Z,5.50
2023-12-01T03:12:53.696Z,5.50
2023-12-01T03:15:21.488Z,5.60
2023-12-01T03:17:49.802Z,5.50
2023-12-01T03:20:36.030Z,5.60
2023-12-01T03:23:03.613Z,5.60
2023-12-01T03:25:30.888Z,5.60
2023-12-01T03:27:58.178Z,5.70
2023-12-01T03:30:25.487Z,5.60
2023-12-01T03:32:54.687Z,5.70
2023-12-01T03:35:26.021Z,5.60
2023-12-01T03:37:58.045Z,5.50
2023-12-01T03:40:27.224Z,5.30
2023-12-01T03:42:54.912Z,5.20
2023-12-01T03:45:22.303Z,5.30
2023-12-01T03:47:51.861Z,5.40
2023-12-01T03:50:22.853Z,5.50
2023-12-01T03:52:51.724Z,5.50
2023-12-01T03:55:19.345Z,5.40
2023-12-01T03:57:47.193Z,5.40
2023-12-01T04:00:19.349Z,5.50
2023-12-01T04:02:49.124Z,5.50
2023-12-01T04:05:24.522Z,5.60
2023-12-01T04:07:55.900Z,5.50
2023-12-01T04:13:10.656Z,5.50
2023-12-01T04:15:38.224Z,5.40
2023-12-01T04:18:07.759Z,5.40
2023-12-01T04:20:40.255Z,5.50
2023-12-01T04:23:12.198Z,5.50
2023-12-01T04:25:41.163Z,5.40
2023-12-01T04:28:08.955Z,5.50
2023-12-01T04:30:36.662Z,5.60
2023-12-01T04:33:04.160Z,5.60
2023-12-01T04:35:33.419Z,5.60
2023-12-01T04:38:02.389Z,5.60
2023-12-01T04:40:30.933Z,5.60
2023-12-01T04:42:59.687Z,5.60
2023-12-01T04:45:29.375Z,5.60
2023-12-01T04:47:57.197Z,5.60
2023-12-01T04:50:29.193Z,5.70
2023-12-01T04:52:58.446Z,5.60
2023-12-01T04:55:27.640Z,5.50
2023-12-01T04:57:59.866Z,5.40
2023-12-01T05:00:28.650Z,5.40
2023-12-01T05:02:58.099Z,5.30
2023-12-01T05:05:30.202Z,5.40
2023-12-01T05:08:00.399Z,5.40
2023-12-01T05:10:28.858Z,5.40
2023-12-01T05:12:58.021Z,5.40
2023-12-01T05:15:27.457Z,5.30
2023-12-01T05:18:06.641Z,5.40
2023-12-01T05:20:35.222Z,5.30
2023-12-01T05:25:54.880Z,5.30
2023-12-01T05:28:22.242Z,5.30
2023-12-01T05:30:49.524Z,5.10
2023-12-01T05:33:18.376Z,5.00
2023-12-01T05:35:47.537Z,5.00
2023-12-01T05:38:16.814Z,5.00
2023-12-01T05:40:44.221Z,5.10
2023-12-01T05:43:11.571Z,5.10
2023-12-01T05:45:39.081Z,5.20
2023-12-01T05:48:10.553Z,5.30
2023-12-01T05:50:39.989Z,5.30
2023-12-01T05:53:12.491Z,5.40
2023-12-01T05:55:39.915Z,5.50
2023-12-01T05:58:13.395Z,5.60
2023-12-01T06:00:42.292Z,5.60
2023-12-01T06:03:11.886Z,5.40
2023-12-01T06:05:39.977Z,5.50
2023-12-01T06:08:11.482Z,5.60
2023-12-01T06:10:40.283Z,5.60
2023-12-01T06:13:08.119Z,5.70
2023-12-01T06:15:35.666Z,5.80
2023-12-01T06:18:04.907Z,5.70
2023-12-01T06:20:33.359Z,5.80
2023-12-01T06:23:02.711Z,5.90
2023-12-01T06:25:33.312Z,5.90
2023-12-01T06:28:03.239Z,5.70
2023-12-01T06:30:36.616Z,5.70
2023-12-01T06:35:54.199Z,5.60
2023-12-01T06:38:21.422Z,5.60
2023-12-01T06:40:48.660Z,5.70
2023-12-01T06:43:16.217Z,6.00
2023-12-01T06:45:44.495Z,6.20
2023-12-01T06:48:12.509Z,6.20
2023-12-01T06:50:39.907Z,5.90
2023-12-01T06:53:08.457Z,5.90
2023-12-01T06:55:37.433Z,6.00
2023-12-01T06:58:04.874Z,5.90
2023-12-01T07:00:37.528Z,6.00
2023-12-01T07:03:08.116Z,6.20
2023-12-01T07:05:36.880Z,6.30
2023-12-01T07:08:07.868Z,6.30
2023-12-01T07:10:35.139Z,6.30
2023-12-01T07:13:03.122Z,6.20
2023-12-01T07:15:31.078Z,6.30
2023-12-01T07:18:00.141Z,6.20
2023-12-01T07:20:27.648Z,6.30
2023-12-01T07:22:55.237Z,6.30
2023-12-01T07:25:25.014Z,6.40
2023-12-01T07:27:56.435Z,6.40
2023-12-01T07:30:24.046Z,6.40
2023-12-01T07:32:51.934Z,6.40
2023-12-01T07:35:19.181Z,6.50
2023-12-01T07:37:48.371Z,6.50
2023-12-01T07:40:23.500Z,6.60
2023-12-01T07:42:53.330Z,6.50
2023-12-01T07:45:21.267Z,6.70
2023-12-01T07:47:50.210Z,6.90
2023-12-01T07:50:18.940Z,6.90
2023-12-01T07:52:47.614Z,7.00
2023-12-01T07:55:14.970Z,7.00
2023-12-01T07:57:42.445Z,7.10
2023-12-01T08:00:18.204Z,7.10
2023-12-01T08:02:49.732Z,7.00
2023-12-01T08:05:18.314Z,7.00
2023-12-01T08:07:48.605Z,7.10
2023-12-01T08:10:19.017Z,7.10
2023-12-01T08:12:47.464Z,7.10
2023-12-01T08:15:15.497Z,7.10
2023-12-01T08:17:45.255Z,7.20
2023-12-01T08:20:12.898Z,7.30
2023-12-01T08:22:41.034Z,7.40
2023-12-01T08:25:10.312Z,7.40
2023-12-01T08:27:38.802Z,7.30
2023-12-01T08:30:07.511Z,7.30
2023-12-01T08:32:35.116Z,7.50
2023-12-01T08:35:03.232Z,7.60
2023-12-01T08:37:32.453Z,7.70
2023-12-01T08:39:59.720Z,7.80
2023-12-01T08:42:27.011Z,7.80
2023-12-01T08:44:54.892Z,7.90
2023-12-01T08:47:22.637Z,7.80
2023-12-01T08:49:50.627Z,7.90
2023-12-01T08:52:18.728Z,8.00
2023-12-01T08:54:45.916Z,8.10
2023-12-01T08:57:13.249Z,8.50
2023-12-01T08:59:40.501Z,9.00
2023-12-01T09:02:12.060Z,9.40
2023-12-01T09:04:40.304Z,9.80
2023-12-01T09:07:08.250Z,9.90
2023-12-01T09:09:35.685Z,10.30
2023-12-01T09:12:03.303Z,10.70
2023-12-01T09:14:32.373Z,10.80
2023-12-01T09:16:59.763Z,11.00
2023-12-01T09:19:27.050Z,11.00
2023-12-01T09:21:54.389Z,10.80
2023-12-01T09:24:21.683Z,10.70
2023-12-01T09:26:49.770Z,10.90
2023-12-01T09:29:17.310Z,11.30
2023-12-01T09:31:49.056Z,11.90
2023-12-01T09:34:16.524Z,12.30
2023-12-01T09:36:44.486Z,12.40
2023-12-01T09:39:11.987Z,12.40
2023-12-01T09:41:40.465Z,12.50
2023-12-01T09:44:13.722Z,12.40
2023-12-01T09:46:44.681Z,12.30
2023-12-01T09:49:12.167Z,12.10
2023-12-01T09:51:40.667Z,11.90
2023-12-01T09:54:08.078Z,11.80
2023-12-01T09:56:36.278Z,11.80
2023-12-01T09:59:04.275Z,11.70
2023-12-01T10:01:31.721Z,11.70
2023-12-01T10:04:00.368Z,11.60
2023-12-01T10:06:28.643Z,11.60
2023-12-01T10:08:55.955Z,11.80
2023-12-01T10:11:27.263Z,11.80
2023-12-01T10:13:54.588Z,11.90
2023-12-01T10:16:25.050Z,12.10
2023-12-01T10:19:06.211Z,12.10
2023-12-01T10:21:47.567Z,12.20
2023-12-01T10:24:22.209Z,12.40
2023-12-01T10:26:51.351Z,12.50
2023-12-01T10:29:34.799Z,12.60
2023-12-01T10:32:04.042Z,12.60
2023-12-01T10:34:31.687Z,12.50
2023-12-01T10:36:59.203Z,12.30
2023-12-01T10:39:28.833Z,12.30
2023-12-01T10:42:02.390Z,12.20
2023-12-01T10:44:33.896Z,12.50
2023-12-01T10:47:18.150Z,12.70
2023-12-01T10:49:47.280Z,13.10
2023-12-01T10:52:16.371Z,13.40
2023-12-01T10:54:44.995Z,13.70
2023-12-01T11:00:31.619Z,14.30
2023-12-01T11:03:07.157Z,16.60
2023-12-01T11:05:38.015Z,18.30
2023-12-01T11:08:18.792Z,20.00
2023-12-01T11:11:13.219Z,21.70
2023-12-01T11:13:49.849Z,22.30
2023-12-01T11:16:18.177Z,21.20
2023-12-01T11:18:45.991Z,17.90
2023-12-01T11:21:17.228Z,17.10
2023-12-01T11:23:45.012Z,16.30
2023-12-01T11:26:12.963Z,15.80
2023-12-01T11:28:43.229Z,15.50
2023-12-01T11:31:21.136Z,15.20
2023-12-01T11:33:53.959Z,15.20
2023-12-01T11:36:32.688Z,15.30
2023-12-01T11:39:15.345Z,15.80
2023-12-01T11:41:49.894Z,17.10
2023-12-01T11:44:18.425Z,16.90
2023-12-01T11:46:48.932Z,16.40
2023-12-01T11:49:16.798Z,16.30
2023-12-01T11:51:46.660Z,15.60
2023-12-01T11:54:14.361Z,15.40
2023-12-01T11:56:50.980Z,15.40
2023-12-01T11:59:19.377Z,15.20
2023-12-01T12:01:47.913Z,15.60
2023-12-01T12:04:17.984Z,16.00
2023-12-01T12:06:46.300Z,15.60
2023-12-01T12:09:19.874Z,15.90
2023-12-01T12:11:52.160Z,16.10
2023-12-01T12:14:19.988Z,15.60
2023-12-01T12:16:47.564Z,16.10
2023-12-01T12:19:15.748Z,17.40
2023-12-01T12:21:43.370Z,18.60
2023-12-01T12:24:12.389Z,19.20
2023-12-01T12:26:41.005Z,19.10
2023-12-01T12:29:09.660Z,18.00
2023-12-01T12:31:38.709Z,17.70
2023-12-01T12:34:12.619Z,17.30
2023-12-01T12:36:44.636Z,17.00
2023-12-01T12:39:32.985Z,18.30
2023-12-01T12:42:04.780Z,17.70
2023-12-01T12:44:35.102Z,17.20
2023-12-01T12:47:07.025Z,17.00
2023-12-01T12:49:38.721Z,16.70
2023-12-01T12:52:07.791Z,16.40
2023-12-01T12:54:35.150Z,15.60
2023-12-01T12:57:04.269Z,15.10
2023-12-01T12:59:35.549Z,14.70
2023-12-01T13:02:02.873Z,14.60
2023-12-01T13:04:30.531Z,14.40
2023-12-01T13:06:58.045Z,14.30
2023-12-01T13:09:25.503Z,14.10
2023-12-01T13:11:52.807Z,14.10
2023-12-01T13:14:20.163Z,14.00
2023-12-01T13:16:54.970Z,13.90
2023-12-01T13:19:25.928Z,13.70
2023-12-01T13:21:55.999Z,13.60
2023-12-01T13:24:26.630Z,13.40
2023-12-01T13:26:54.637Z,13.30
2023-12-01T13:29:21.843Z,13.20
2023-12-01T13:31:52.290Z,13.20
2023-12-01T13:34:19.803Z,13.20
2023-12-01T13:36:49.555Z,13.20
2023-12-01T13:39:18.441Z,13.10
2023-12-01T13:41:46.444Z,13.10
2023-12-01T13:44:13.758Z,13.00
2023-12-01T13:46:41.544Z,13.00
2023-12-01T13:49:10.244Z,13.00
2023-12-01T13:51:37.482Z,13.00
2023-12-01T13:54:05.934Z,12.90
2023-12-01T13:56:34.783Z,12.90
2023-12-01T13:59:01.957Z,12.90
2023-12-01T14:01:29.529Z,12.90
2023-12-01T14:03:57.866Z,12.80
2023-12-01T14:06:25.172Z,12.80
2023-12-01T14:08:52.880Z,12.80
2023-12-01T14:11:20.098Z,12.80
2023-12-01T14:13:47.296Z,12.80
2023-12-01T14:16:14.888Z,12.70
2023-12-01T14:18:43.296Z,12.60
2023-12-01T14:21:10.852Z,12.60
2023-12-01T14:23:38.405Z,12.60
2023-12-01T14:26:10.887Z,12.60
2023-12-01T14:28:40.710Z,12.60
2023-12-01T14:31:10.918Z,12.50
2023-12-01T14:33:38.861Z,12.60
2023-12-01T14:36:07.668Z,12.60
2023-12-01T14:38:35.057Z,12.60
2023-12-01T14:41:02.320Z,12.60
2023-12-01T14:43:30.586Z,12.70
2023-12-01T14:45:58.019Z,12.80
2023-12-01T14:48:25.428Z,12.80
2023-12-01T14:50:52.981Z,12.60
2023-12-01T14:53:20.657Z,12.60
2023-12-01T14:55:47.939Z,12.50
2023-12-01T14:58:15.845Z,12.40
2023-12-01T15:03:28.835Z,12.10
2023-12-01T15:06:00.138Z,12.00
2023-12-01T15:08:27.389Z,12.00
2023-12-01T15:10:55.625Z,11.90
2023-12-01T15:13:24.688Z,11.80
2023-12-01T15:15:54.628Z,12.00
2023-12-01T15:18:22.078Z,11.90
2023-12-01T15:20:49.482Z,11.90
2023-12-01T15:23:16.748Z,11.90
2023-12-01T15:25:44.616Z,11.80
2023-12-01T15:28:11.940Z,11.80
2023-12-01T15:30:39.210Z,11.90
2023-12-01T15:33:06.668Z,11.80
2023-12-01T15:35:34.205Z,11.70
2023-12-01T15:38:01.741Z,11.80
2023-12-01T15:40:29.110Z,11.60
2023-12-01T15:42:56.365Z,11.70
2023-12-01T15:45:23.702Z,11.60
2023-12-01T15:47:51.099Z,11.70
2023-12-01T15:50:18.508Z,11.70
2023-12-01T15:52:46.030Z,11.60
2023-12-01T15:55:13.281Z,11.60
2023-12-01T15:57:40.558Z,11.50
2023-12-01T16:00:10.944Z,11.50
2023-12-01T16:02:38.882Z,11.40
2023-12-01T16:05:06.783Z,11.40
2023-12-01T16:07:35.109Z,11.40
2023-12-01T16:10:02.586Z,11.30
2023-12-01T16:12:31.366Z,11.20
2023-12-01T16:15:08.415Z,11.20
2023-12-01T16:17:42.618Z,11.00
2023-12-01T16:20:11.089Z,10.90
2023-12-01T16:22:38.322Z,10.90
2023-12-01T16:25:12.225Z,10.90
2023-12-01T16:27:39.608Z,11.00
2023-12-01T16:30:08.643Z,11.00
2023-12-01T16:32:36.178Z,11.10
2023-12-01T16:35:05.845Z,11.30
2023-12-01T16:37:34.238Z,11.20
2023-12-01T16:40:01.563Z,11.10
2023-12-01T16:42:28.960Z,11.20
2023-12-01T16:44:56.253Z,11.10
2023-12-01T16:47:26.370Z,11.20
2023-12-01T16:49:54.018Z,11.20
2023-12-01T16:52:24.838Z,11.30
2023-12-01T16:55:14.831Z,11.30
2023-12-01T16:57:43.478Z,11.30
2023-12-01T17:00:11.476Z,11.20
2023-12-01T17:02:41.923Z,11.10
2023-12-01T17:05:09.870Z,11.00
2023-12-01T17:07:37.087Z,11.00
2023-12-01T17:12:49.404Z,10.80
2023-12-01T17:18:01.938Z,10.60
2023-12-01T17:20:29.252Z,10.60
2023-12-01T17:22:56.923Z,10.60
2023-12-01T17:25:24.380Z,10.50
2023-12-01T17:27:51.600Z,10.50
2023-12-01T17:30:18.933Z,10.50
2023-12-01T17:32:46.248Z,10.50
2023-12-01T17:35:13.706Z,10.50
2023-12-01T17:37:41.014Z,10.40
2023-12-01T17:40:10.777Z,10.50
2023-12-01T17:42:40.258Z,10.40
2023-12-01T17:45:08.021Z,10.40
2023-12-01T17:47:35.231Z,10.50
2023-12-01T17:50:02.473Z,10.50
2023-12-01T17:52:29.741Z,10.50
2023-12-01T17:54:57.018Z,10.40
2023-12-01T17:57:24.634Z,10.40
2023-12-01T17:59:53.621Z,10.40
2023-12-01T18:02:21.404Z,10.40
2023-12-01T18:04:49.528Z,10.30
2023-12-01T18:07:17.781Z,10.30
2023-12-01T18:09:45.260Z,10.20
2023-12-01T18:12:14.801Z,10.30
2023-12-01T18:14:42.039Z,10.30
2023-12-01T18:17:09.425Z,10.30
2023-12-01T18:19:39.940Z,10.20
2023-12-01T18:22:07.282Z,10.20
2023-12-01T18:24:34.663Z,10.30
2023-12-01T18:27:01.970Z,10.30
2023-12-01T18:29:29.213Z,10.20
2023-12-01T18:31:56.749Z,10.10
2023-12-01T18:34:24.080Z,10.00
2023-12-01T18:36:53.084Z,10.10
2023-12-01T18:39:20.511Z,10.10
2023-12-01T18:41:50.042Z,10.10
2023-12-01T18:44:17.446Z,10.10
2023-12-01T18:49:32.378Z,10.10
2023-12-01T18:51:59.635Z,10.10
2023-12-01T18:54:27.702Z,10.00
2023-12-01T18:56:55.537Z,9.90
2023-12-01T18:59:22.877Z,9.90
2023-12-01T19:01:50.352Z,9.90
2023-12-01T19:04:17.823Z,10.00
2023-12-01T19:06:45.202Z,9.80
2023-12-01T19:09:12.882Z,9.80
2023-12-01T19:11:43.052Z,9.80
2023-12-01T19:14:13.247Z,9.90
2023-12-01T19:16:40.477Z,9.90
2023-12-01T19:19:08.749Z,9.90
2023-12-01T19:21:37.370Z,9.90
2023-12-01T19:24:06.817Z,10.00
2023-12-01T19:26:34.926Z,10.30
2023-12-01T19:29:02.324Z,10.40
2023-12-01T19:31:29.573Z,10.30
2023-12-01T19:33:56.904Z,10.20
2023-12-01T19:36:24.270Z,10.10
2023-12-01T19:38:51.605Z,10.10
2023-12-01T19:41:18.826Z,9.90
2023-12-01T19:43:46.183Z,9.90
2023-12-01T19:46:14.625Z,9.90
2023-12-01T19:48:43.110Z,10.00
2023-12-01T19:51:12.433Z,10.40
2023-12-01T19:53:39.848Z,10.50
2023-12-01T19:56:07.603Z,10.00
2023-12-01T19:58:36.981Z,9.80
2023-12-01T20:01:07.548Z,9.70
2023-12-01T20:03:34.788Z,9.80
2023-12-01T20:06:02.542Z,9.50
2023-12-01T20:08:32.068Z,9.40
2023-12-01T20:11:01.943Z,9.40
2023-12-01T20:13:29.298Z,9.40
2023-12-01T20:15:56.638Z,9.50
2023-12-01T20:18:24.199Z,9.40
2023-12-01T20:20:51.671Z,9.30
2023-12-01T20:23:19.001Z,9.30
2023-12-01T20:25:46.296Z,9.10
2023-12-01T20:28:13.637Z,9.20
2023-12-01T20:30:40.956Z,9.30
2023-12-01T20:33:09.228Z,9.30
2023-12-01T20:35:37.604Z,9.30
2023-12-01T20:38:04.880Z,9.30
2023-12-01T20:40:32.102Z,9.40
2023-12-01T20:42:59.347Z,9.40
2023-12-01T20:45:26.681Z,9.40
2023-12-01T20:47:54.246Z,9.40
2023-12-01T20:50:21.749Z,9.30
2023-12-01T20:52:50.326Z,9.10
2023-12-01T20:55:19.260Z,9.10
2023-12-01T20:57:46.659Z,9.20
2023-12-01T21:00:14.332Z,9.20
2023-12-01T21:02:44.479Z,9.20
2023-12-01T21:05:12.309Z,9.20
2023-12-01T21:07:39.967Z,9.30
2023-12-01T21:10:09.709Z,9.20
2023-12-01T21:12:37.511Z,9.10
2023-12-01T21:15:05.085Z,9.10
2023-12-01T21:17:32.504Z,8.90
2023-12-01T21:19:59.851Z,8.90
2023-12-01T21:22:28.151Z,8.90
2023-12-01T21:24:55.500Z,8.90
2023-12-01T21:27:22.828Z,9.10
2023-12-01T21:29:50.276Z,9.10
2023-12-01T21:32:17.601Z,9.10
2023-12-01T21:34:44.910Z,9.20
2023-12-01T21:37:12.486Z,9.20
2023-12-01T21:39:39.809Z,9.10
2023-12-01T21:42:07.322Z,9.10
2023-12-01T21:44:34.659Z,9.20
2023-12-01T21:47:02.099Z,9.00
2023-12-01T21:49:29.489Z,8.90
2023-12-01T21:51:57.074Z,8.90
2023-12-01T21:54:25.348Z,8.90
2023-12-01T21:56:52.623Z,8.70
2023-12-01T21:59:19.861Z,8.80
2023-12-01T22:01:47.140Z,8.80
2023-12-01T22:04:15.356Z,8.80
2023-12-01T22:06:44.393Z,8.80
2023-12-01T22:09:11.799Z,8.90
2023-12-01T22:11:57.787Z,9.00
2023-12-01T22:14:25.045Z,9.10
2023-12-01T22:16:52.285Z,9.10
2023-12-01T22:19:19.643Z,9.00
2023-12-01T22:21:47.050Z,9.10
2023-12-01T22:24:14.417Z,8.90
2023-12-01T22:26:43.151Z,8.80
2023-12-01T22:29:12.089Z,8.60
2023-12-01T22:31:42.891Z,8.60
2023-12-01T22:34:19.906Z,8.60
2023-12-01T22:36:50.648Z,8.50
2023-12-01T22:39:24.288Z,8.50
2023-12-01T22:44:46.273Z,8.60
2023-12-01T22:47:19.092Z,8.60
2023-12-01T22:49:48.293Z,8.40
2023-12-01T22:52:16.025Z,8.60
2023-12-01T22:54:43.261Z,8.70
2023-12-01T22:57:10.782Z,8.70
2023-12-01T22:59:38.036Z,8.70
2023-12-01T23:02:05.666Z,8.60
2023-12-01T23:04:33.439Z,8.50
2023-12-01T23:07:01.168Z,8.50
2023-12-01T23:09:28.743Z,8.60
2023-12-01T23:11:56.017Z,8.60
2023-12-01T23:14:23.377Z,8.60
2023-12-01T23:16:50.579Z,8.50
2023-12-01T23:19:18.098Z,8.40
2023-12-01T23:21:47.466Z,8.50
2023-12-01T23:24:16.144Z,8.50
2023-12-01T23:26:44.793Z,8.40
2023-12-01T23:29:13.280Z,8.40
2023-12-01T23:31:40.516Z,8.50
2023-12-01T23:34:07.874Z,8.40
2023-12-01T23:36:36.557Z,8.50
2023-12-01T23:39:04.225Z,8.50
2023-12-01T23:41:31.536Z,8.50
2023-12-01T23:44:01.827Z,8.50
2023-12-01T23:46:29.262Z,8.60
2023-12-01T23:48:56.598Z,8.40
2023-12-01T23:51:23.888Z,8.50
2023-12-01T23:53:55.620Z,8.40
2023-12-01T23:56:22.854Z,8.50
2023-12-01T23:58:50.128Z,8.40
